Time;durP1;ratioP1;P1;durP2;ratioP2;P2;SDS_P1;SDS_P2;PMS_P1;PMS_P2;Temp;Humidity;BMP_temperature;BMP_pressure;BME280_temperature;BME280_humidity;BME280_pressure;Samples;Min_cycle;Max_cycle;Signal;HPM_P1;HPM_P2
2023/09/23 00:00:15;;;;;;;4.00;3.40;;;14.90;99.90;;;;;;5030990;28;20447;-75
2023/09/23 00:02:44;;;;;;;4.37;3.50;;;14.90;99.90;;;;;;5034329;28;20680;-74
2023/09/23 00:05:15;;;;;;;3.77;3.47;;;15.00;99.90;;;;;;5034790;28;20514;-74
2023/09/23 00:07:41;;;;;;;5.03;3.90;;;14.90;99.90;;;;;;5035095;28;20406;-74
2023/09/23 00:10:08;;;;;;;4.00;3.67;;;14.90;99.90;;;;;;5034816;28;20432;-74
2023/09/23 00:12:40;;;;;;;4.80;3.60;;;14.90;99.90;;;;;;5034264;28;20439;-74
2023/09/23 00:15:07;;;;;;;3.07;2.87;;;14.90;99.90;;;;;;5034229;28;20481;-74
2023/09/23 00:17:33;;;;;;;3.47;3.17;;;14.90;99.90;;;;;;5035403;28;20416;-74
2023/09/23 00:20:00;;;;;;;4.00;3.60;;;14.90;99.90;;;;;;5034637;28;20508;-73
2023/09/23 00:22:26;;;;;;;5.40;3.37;;;14.90;99.90;;;;;;5034643;28;20451;-74
2023/09/23 00:24:54;;;;;;;3.57;3.17;;;14.90;99.90;;;;;;5034109;28;20411;-74
2023/09/23 00:27:21;;;;;;;4.00;3.70;;;14.90;99.90;;;;;;5034385;28;20419;-74
2023/09/23 00:29:48;;;;;;;3.17;2.87;;;14.90;99.90;;;;;;5034206;28;20485;-74
2023/09/23 00:32:16;;;;;;;6.10;3.50;;;14.90;99.90;;;;;;5033689;28;20430;-74
2023/09/23 00:34:43;;;;;;;4.40;4.00;;;14.80;99.90;;;;;;5034249;28;20415;-74
2023/09/23 00:37:08;;;;;;;3.97;3.27;;;14.80;99.90;;;;;;5033867;28;20442;-74
2023/09/23 00:39:42;;;;;;;3.00;2.80;;;14.80;99.90;;;;;;5034306;28;20923;-74
2023/09/23 00:42:12;;;;;;;4.97;3.40;;;14.80;99.90;;;;;;5034243;28;20198;-74
2023/09/23 00:44:39;;;;;;;4.67;3.37;;;14.80;99.90;;;;;;5034086;28;20417;-74
2023/09/23 00:47:06;;;;;;;3.50;3.10;;;14.80;99.90;;;;;;5034013;28;20504;-74
2023/09/23 00:49:33;;;;;;;3.63;3.33;;;14.80;99.90;;;;;;5041276;28;20910;-74
2023/09/23 00:52:01;;;;;;;3.47;3.17;;;14.80;99.90;;;;;;5033820;28;21034;-74
2023/09/23 00:54:26;;;;;;;7.07;3.80;;;14.80;99.90;;;;;;5029162;28;20439;-74
2023/09/23 00:56:52;;;;;;;3.70;3.30;;;14.80;99.90;;;;;;5034054;28;20415;-74
2023/09/23 00:59:18;;;;;;;4.30;3.40;;;14.70;99.90;;;;;;5034125;28;20175;-74
2023/09/23 01:01:51;;;;;;;3.73;3.43;;;14.70;99.90;;;;;;5033087;28;20200;-74
2023/09/23 01:04:17;;;;;;;4.07;3.53;;;14.70;99.90;;;;;;5034236;28;20429;-75
2023/09/23 01:06:43;;;;;;;4.63;4.23;;;14.70;99.90;;;;;;5033403;28;20407;-74
2023/09/23 01:09:15;;;;;;;3.67;3.37;;;14.70;99.90;;;;;;5033697;28;20205;-74
2023/09/23 01:11:41;;;;;;;5.23;3.03;;;14.70;99.90;;;;;;5033790;28;20430;-73
2023/09/23 01:14:07;;;;;;;3.43;3.10;;;14.70;99.90;;;;;;5033027;28;20411;-74
2023/09/23 01:16:33;;;;;;;3.30;2.63;;;14.70;99.90;;;;;;5039261;28;20550;-74
2023/09/23 01:18:58;;;;;;;5.23;2.87;;;14.60;99.90;;;;;;5035010;28;20190;-75
2023/09/23 01:21:24;;;;;;;3.93;3.10;;;14.70;99.90;;;;;;5033377;28;20465;-75
2023/09/23 01:23:50;;;;;;;2.83;2.60;;;14.70;99.90;;;;;;5032727;28;20648;-74
2023/09/23 01:26:16;;;;;;;2.77;2.43;;;14.70;99.90;;;;;;5032434;28;20464;-74
2023/09/23 01:28:43;;;;;;;2.90;2.60;;;14.70;99.90;;;;;;5033216;28;20201;-74
2023/09/23 01:31:09;;;;;;;7.43;2.80;;;14.70;99.90;;;;;;5032372;28;20458;-73
2023/09/23 01:33:35;;;;;;;3.13;2.40;;;14.60;99.90;;;;;;5033433;28;20412;-73
2023/09/23 01:36:03;;;;;;;4.30;2.47;;;14.70;99.90;;;;;;5033018;28;20544;-73
2023/09/23 01:38:32;;;;;;;2.80;2.60;;;14.60;99.90;;;;;;5034354;28;20415;-74
2023/09/23 01:41:01;;;;;;;2.80;2.60;;;14.60;99.90;;;;;;5033198;28;20485;-74
2023/09/23 01:43:27;;;;;;;3.23;2.90;;;14.60;99.90;;;;;;5032913;28;20917;-74
2023/09/23 01:45:57;;;;;;;5.33;2.77;;;14.60;99.90;;;;;;5032452;28;20435;-74
2023/09/23 01:48:23;;;;;;;4.97;2.67;;;14.60;99.90;;;;;;5033278;28;20176;-74
2023/09/23 01:50:49;;;;;;;2.87;2.40;;;14.50;99.90;;;;;;5035385;28;20438;-74
2023/09/23 01:53:16;;;;;;;2.90;2.23;;;14.50;99.90;;;;;;5032862;28;20669;-74
2023/09/23 01:55:41;;;;;;;2.37;2.17;;;14.50;99.90;;;;;;5032211;28;20176;-74
2023/09/23 01:58:07;;;;;;;2.80;1.93;;;14.50;99.90;;;;;;5032571;28;20774;-74
2023/09/23 02:00:34;;;;;;;3.30;2.50;;;14.50;99.90;;;;;;5032352;28;20199;-74
2023/09/23 02:03:00;;;;;;;4.37;2.43;;;14.50;99.90;;;;;;5032087;28;20196;-74
2023/09/23 02:05:29;;;;;;;3.93;2.40;;;14.50;99.90;;;;;;5033403;28;20412;-74
2023/09/23 02:07:55;;;;;;;2.33;2.17;;;14.50;99.90;;;;;;5033911;28;20173;-75
2023/09/23 02:10:23;;;;;;;3.20;2.00;;;14.40;99.90;;;;;;5032834;28;20423;-75
2023/09/23 02:12:49;;;;;;;2.63;2.43;;;14.40;99.90;;;;;;5033048;28;20825;-75
2023/09/23 02:15:15;;;;;;;3.93;2.23;;;14.40;99.90;;;;;;5032358;28;20419;-74
2023/09/23 02:17:42;;;;;;;3.43;2.63;;;14.40;99.90;;;;;;5035823;28;20430;-74
2023/09/23 02:20:17;;;;;;;3.43;2.00;;;14.40;99.90;;;;;;5033099;28;20430;-74
2023/09/23 02:22:45;;;;;;;3.57;2.80;;;14.40;99.90;;;;;;5031622;28;20988;-74
2023/09/23 02:25:13;;;;;;;2.97;2.23;;;14.40;99.90;;;;;;5031191;28;20930;-74
2023/09/23 02:27:43;;;;;;;2.33;2.13;;;14.40;99.90;;;;;;5032640;28;20497;-74
2023/09/23 02:30:09;;;;;;;2.33;2.10;;;14.40;99.90;;;;;;5031753;28;20458;-73
2023/09/23 02:32:40;;;;;;;5.90;2.50;;;14.30;99.90;;;;;;5031710;28;20501;-75
2023/09/23 02:35:11;;;;;;;2.50;2.30;;;14.30;99.90;;;;;;5032660;28;20442;-73
2023/09/23 02:37:44;;;;;;;2.10;1.90;;;14.30;99.90;;;;;;5032451;28;20421;-74
2023/09/23 02:40:17;;;;;;;3.57;1.90;;;14.30;99.90;;;;;;5031911;28;20445;-73
2023/09/23 02:42:44;;;;;;;2.37;2.17;;;14.30;99.90;;;;;;5031351;28;20974;-75
2023/09/23 02:45:13;;;;;;;3.50;2.60;;;14.30;99.90;;;;;;5024081;28;20418;-75
2023/09/23 02:47:41;;;;;;;3.23;2.07;;;14.20;99.90;;;;;;5032155;28;20514;-75
2023/09/23 02:50:15;;;;;;;2.80;2.10;;;14.20;99.90;;;;;;5031447;28;20425;-74
2023/09/23 02:52:42;;;;;;;4.87;1.87;;;14.20;99.90;;;;;;5032027;28;20804;-74
2023/09/23 02:55:12;;;;;;;2.40;1.87;;;14.20;99.90;;;;;;5031399;28;20407;-74
2023/09/23 02:57:46;;;;;;;2.00;1.80;;;14.10;99.90;;;;;;5031814;28;20434;-74
2023/09/23 03:00:23;;;;;;;3.23;2.53;;;14.10;99.90;;;;;;5031961;28;20478;-74
2023/09/23 03:02:53;;;;;;;2.20;1.90;;;14.10;99.90;;;;;;5031787;28;20525;-74
2023/09/23 03:05:25;;;;;;;1.87;1.67;;;14.10;99.90;;;;;;5031664;28;20509;-74
2023/09/23 03:07:51;;;;;;;1.90;1.80;;;14.10;99.90;;;;;;5056293;22;20490;-69
2023/09/23 03:10:30;;;;;;;1.90;1.80;;;14.10;99.90;;;;;;5043740;28;20425;-70
2023/09/23 03:13:02;;;;;;;5.53;2.20;;;14.00;99.90;;;;;;5038899;28;20518;-71
2023/09/23 03:15:34;;;;;;;3.17;2.33;;;14.00;99.90;;;;;;5041725;28;20467;-70
2023/09/23 03:18:00;;;;;;;2.73;2.53;;;14.00;99.90;;;;;;5049351;28;20996;-71
2023/09/23 03:20:26;;;;;;;2.30;2.00;;;14.00;99.90;;;;;;5065195;28;20424;-70
2023/09/23 03:22:54;;;;;;;3.17;2.50;;;14.00;99.90;;;;;;5070304;28;20463;-68
2023/09/23 03:25:20;;;;;;;3.50;2.17;;;14.00;99.90;;;;;;5070340;28;20170;-68
2023/09/23 03:27:52;;;;;;;2.87;2.20;;;14.00;99.90;;;;;;5067926;28;20870;-69
2023/09/23 03:30:18;;;;;;;1.50;1.40;;;13.90;99.90;;;;;;5069005;28;20424;-68
2023/09/23 03:32:45;;;;;;;2.83;2.17;;;13.90;99.90;;;;;;5070081;28;20469;-68
2023/09/23 03:35:17;;;;;;;2.07;1.50;;;13.90;99.90;;;;;;5066871;28;20178;-70
2023/09/23 03:37:47;;;;;;;2.73;1.87;;;13.90;99.90;;;;;;5062156;28;20497;-69
2023/09/23 03:40:15;;;;;;;2.70;2.40;;;13.90;99.90;;;;;;5066060;28;20428;-68
2023/09/23 03:42:42;;;;;;;1.80;1.53;;;13.90;99.90;;;;;;5065807;28;20453;-69
2023/09/23 03:45:10;;;;;;;2.30;2.10;;;13.90;99.90;;;;;;5066219;28;20440;-68
2023/09/23 03:47:37;;;;;;;1.60;1.50;;;13.90;99.90;;;;;;5060467;28;20859;-69
2023/09/23 03:50:03;;;;;;;1.47;1.37;;;13.90;99.90;;;;;;5073776;28;20424;-69
2023/09/23 03:52:29;;;;;;;1.90;1.63;;;13.90;99.90;;;;;;5073903;28;20432;-69
2023/09/23 03:54:57;;;;;;;2.23;1.50;;;13.90;99.90;;;;;;5072275;28;20863;-70
2023/09/23 03:57:22;;;;;;;3.43;1.97;;;13.90;99.90;;;;;;5066804;28;20444;-69
2023/09/23 03:59:49;;;;;;;1.83;1.67;;;13.90;99.90;;;;;;5073403;28;20435;-69
2023/09/23 04:02:14;;;;;;;1.73;1.63;;;13.90;99.90;;;;;;5064490;28;20197;-71
2023/09/23 04:04:40;;;;;;;2.07;1.87;;;13.90;99.90;;;;;;5064621;28;20421;-69
2023/09/23 04:07:07;;;;;;;1.53;1.43;;;13.80;99.90;;;;;;5072799;28;20186;-69
2023/09/23 04:09:33;;;;;;;1.70;1.60;;;13.90;99.90;;;;;;5065740;28;20190;-69
2023/09/23 04:12:00;;;;;;;1.93;1.83;;;13.80;99.90;;;;;;5065486;28;20495;-70
2023/09/23 04:14:27;;;;;;;1.73;1.63;;;13.80;99.90;;;;;;5073184;28;20505;-68
2023/09/23 04:16:53;;;;;;;1.93;1.40;;;13.80;99.90;;;;;;5065148;28;20432;-70
2023/09/23 04:19:19;;;;;;;1.70;1.60;;;13.80;99.90;;;;;;5072503;28;20532;-71
2023/09/23 04:21:44;;;;;;;4.13;1.77;;;13.80;99.90;;;;;;5058660;28;20547;-69
2023/09/23 04:24:10;;;;;;;1.77;1.40;;;13.80;99.90;;;;;;5072765;28;20170;-68
2023/09/23 04:26:35;;;;;;;1.50;1.40;;;13.80;99.90;;;;;;5073735;28;20178;-69
2023/09/23 04:29:01;;;;;;;3.57;1.40;;;13.80;99.90;;;;;;5065151;28;20634;-68
2023/09/23 04:31:28;;;;;;;1.40;1.30;;;13.70;99.90;;;;;;5065026;28;20231;-68
2023/09/23 04:33:53;;;;;;;1.57;1.47;;;13.70;99.90;;;;;;5073200;28;20431;-68
2023/09/23 04:36:21;;;;;;;2.20;1.40;;;13.70;99.90;;;;;;5070984;28;20436;-71
2023/09/23 04:38:49;;;;;;;1.90;1.77;;;13.70;99.90;;;;;;5065545;28;20206;-69
2023/09/23 04:41:15;;;;;;;2.13;1.90;;;13.60;99.90;;;;;;5065081;28;20511;-69
2023/09/23 04:43:41;;;;;;;4.10;1.47;;;13.60;99.90;;;;;;5073513;28;20546;-69
2023/09/23 04:46:08;;;;;;;2.83;2.37;;;13.50;99.90;;;;;;5072880;28;20182;-70
2023/09/23 04:48:33;;;;;;;1.90;1.70;;;13.50;99.90;;;;;;5072349;28;20429;-69
2023/09/23 04:50:59;;;;;;;1.67;1.20;;;13.50;99.90;;;;;;5073102;28;20759;-69
2023/09/23 04:53:26;;;;;;;2.43;1.37;;;13.50;99.90;;;;;;5060929;28;20179;-70
2023/09/23 04:55:52;;;;;;;1.53;1.43;;;13.40;99.90;;;;;;5069524;28;20190;-69
2023/09/23 04:58:18;;;;;;;2.50;1.40;;;13.40;99.90;;;;;;5071968;28;20447;-69
2023/09/23 05:00:43;;;;;;;4.93;1.33;;;13.50;99.90;;;;;;5057941;28;20186;-69
2023/09/23 05:03:09;;;;;;;1.90;1.37;;;13.50;99.90;;;;;;5072106;28;20210;-69
2023/09/23 05:05:36;;;;;;;1.30;1.13;;;13.40;99.90;;;;;;5072835;28;20211;-69
2023/09/23 05:08:06;;;;;;;1.53;1.43;;;13.30;99.90;;;;;;5070627;28;20622;-70
2023/09/23 05:10:32;;;;;;;1.57;1.40;;;13.30;99.90;;;;;;5062281;28;20424;-69
2023/09/23 05:12:58;;;;;;;2.40;1.33;;;13.40;99.90;;;;;;5067287;28;20436;-69
2023/09/23 05:15:24;;;;;;;1.63;1.53;;;13.30;99.90;;;;;;5068037;28;20433;-69
2023/09/23 05:17:50;;;;;;;1.90;1.00;;;13.30;99.90;;;;;;5069105;28;20496;-69
2023/09/23 05:20:18;;;;;;;1.07;0.97;;;13.20;99.90;;;;;;5072547;28;20506;-69
2023/09/23 05:22:44;;;;;;;2.90;1.43;;;13.30;99.90;;;;;;5065016;28;20457;-69
2023/09/23 05:25:11;;;;;;;1.57;1.40;;;13.30;99.90;;;;;;5071841;28;20431;-70
2023/09/23 05:27:40;;;;;;;1.37;1.13;;;13.30;99.90;;;;;;5072485;28;20186;-70
2023/09/23 05:30:10;;;;;;;5.53;1.90;;;13.30;99.90;;;;;;5060841;28;20832;-71
2023/09/23 05:32:39;;;;;;;1.63;1.47;;;13.30;99.90;;;;;;5066517;28;20590;-70
2023/09/23 05:35:09;;;;;;;2.10;1.40;;;13.30;99.90;;;;;;5062980;28;20478;-70
2023/09/23 05:37:39;;;;;;;1.57;1.47;;;13.30;99.90;;;;;;5066971;28;20473;-69
2023/09/23 05:40:10;;;;;;;1.40;1.13;;;13.20;99.90;;;;;;5071564;28;20507;-69
2023/09/23 05:42:36;;;;;;;3.47;1.67;;;13.20;99.90;;;;;;5072036;28;20447;-70
2023/09/23 05:45:02;;;;;;;3.73;1.70;;;13.20;99.90;;;;;;5070245;28;20451;-68
2023/09/23 05:47:30;;;;;;;2.20;1.60;;;13.30;99.90;;;;;;5065371;28;20838;-68
2023/09/23 05:49:56;;;;;;;1.83;1.33;;;13.30;99.90;;;;;;5072224;28;20512;-69
2023/09/23 05:52:21;;;;;;;2.47;1.27;;;13.30;99.90;;;;;;5066360;28;20457;-69
2023/09/23 05:54:48;;;;;;;1.30;1.07;;;13.40;99.90;;;;;;5056341;28;20182;-70
2023/09/23 05:57:13;;;;;;;1.67;1.13;;;13.80;99.90;;;;;;5071571;28;20202;-71
2023/09/23 05:59:39;;;;;;;3.27;1.20;;;14.00;99.90;;;;;;5070036;28;20460;-70
2023/09/23 06:02:08;;;;;;;1.30;1.20;;;14.20;99.90;;;;;;5062242;28;20295;-70
2023/09/23 06:04:35;;;;;;;1.17;0.90;;;14.30;99.90;;;;;;5052901;28;20555;-70
2023/09/23 06:07:02;;;;;;;2.10;1.40;;;14.50;99.90;;;;;;5069112;28;20501;-70
2023/09/23 06:09:27;;;;;;;1.80;1.30;;;14.60;99.90;;;;;;5071702;28;20836;-69
2023/09/23 06:11:54;;;;;;;4.20;1.30;;;14.70;99.90;;;;;;5070546;28;20450;-70
2023/09/23 06:14:20;;;;;;;0.87;0.80;;;15.00;99.90;;;;;;5059178;28;20199;-70
2023/09/23 06:16:47;;;;;;;1.13;1.03;;;15.50;99.90;;;;;;5067021;28;20432;-71
2023/09/23 06:19:13;;;;;;;1.07;0.80;;;16.40;99.90;;;;;;5063233;28;20210;-70
2023/09/23 06:21:38;;;;;;;1.00;0.90;;;16.60;99.90;;;;;;5071831;28;20813;-70
2023/09/23 06:24:04;;;;;;;1.60;0.90;;;16.60;99.90;;;;;;5064592;28;20190;-70
2023/09/23 06:26:30;;;;;;;2.20;1.13;;;16.90;99.90;;;;;;5066239;28;20982;-72
2023/09/23 06:28:56;;;;;;;1.70;1.10;;;16.80;99.90;;;;;;5067022;28;20592;-71
2023/09/23 06:31:21;;;;;;;1.37;0.80;;;16.90;99.90;;;;;;5062881;28;20183;-72
2023/09/23 06:33:47;;;;;;;1.60;1.00;;;16.90;99.90;;;;;;5071267;28;20248;-71
2023/09/23 06:36:12;;;;;;;1.17;1.07;;;17.10;99.90;;;;;;5054792;28;20320;-71
2023/09/23 06:38:38;;;;;;;1.43;0.80;;;18.20;99.90;;;;;;5071333;28;20294;-71
2023/09/23 06:41:04;;;;;;;1.53;1.07;;;18.30;99.90;;;;;;5069822;28;20665;-71
2023/09/23 06:43:29;;;;;;;1.40;1.00;;;18.30;99.90;;;;;;5055696;28;20194;-71
2023/09/23 06:45:58;;;;;;;1.57;0.83;;;17.60;99.90;;;;;;5069189;28;20180;-71
2023/09/23 06:48:25;;;;;;;1.20;0.93;;;18.30;99.90;;;;;;5063433;28;20863;-73
2023/09/23 06:51:01;;;;;;;3.63;1.03;;;17.90;99.90;;;;;;5067718;28;20427;-71
2023/09/23 06:53:30;;;;;;;0.93;0.80;;;17.90;99.90;;;;;;5064363;28;20415;-71
2023/09/23 06:55:56;;;;;;;0.97;0.87;;;18.30;99.90;;;;;;5071428;28;20925;-71
2023/09/23 06:58:22;;;;;;;0.70;0.70;;;18.70;99.90;;;;;;5063630;28;20427;-70
2023/09/23 07:00:48;;;;;;;1.00;0.90;;;18.90;99.90;;;;;;5071361;28;20631;-69
2023/09/23 07:03:14;;;;;;;1.17;0.90;;;18.30;99.90;;;;;;5070467;28;20203;-69
2023/09/23 07:05:41;;;;;;;1.30;0.80;;;18.40;99.90;;;;;;5073783;28;20487;-69
2023/09/23 07:08:07;;;;;;;2.30;1.03;;;18.60;99.90;;;;;;5061759;28;20684;-69
2023/09/23 07:10:38;;;;;;;1.17;0.80;;;18.70;99.90;;;;;;5057446;28;20448;-69
2023/09/23 07:13:04;;;;;;;0.90;0.80;;;20.00;99.90;;;;;;5057998;28;20177;-71
2023/09/23 07:15:31;;;;;;;3.30;1.10;;;20.40;99.90;;;;;;5061025;28;20790;-69
2023/09/23 07:17:57;;;;;;;1.83;0.80;;;20.00;99.90;;;;;;5071894;28;20481;-70
2023/09/23 07:20:22;;;;;;;1.50;0.67;;;19.40;99.90;;;;;;5056797;28;20425;-70
2023/09/23 07:22:48;;;;;;;2.83;1.10;;;19.70;99.90;;;;;;5051998;28;20459;-71
2023/09/23 07:25:14;;;;;;;1.20;1.10;;;19.40;99.90;;;;;;5051320;28;20317;-71
2023/09/23 07:27:39;;;;;;;2.20;0.90;;;19.70;99.90;;;;;;5051621;28;20197;-70
2023/09/23 07:30:05;;;;;;;1.10;0.80;;;19.90;99.90;;;;;;5057810;28;20256;-70
2023/09/23 07:32:31;;;;;;;1.30;1.20;;;19.60;99.90;;;;;;5071478;28;20187;-67
2023/09/23 07:34:57;;;;;;;1.53;0.77;;;19.60;99.90;;;;;;5071746;28;20416;-69
2023/09/23 07:37:23;;;;;;;1.30;0.90;;;20.00;99.90;;;;;;5070453;28;20544;-69
2023/09/23 07:39:52;;;;;;;1.20;0.87;;;20.30;99.90;;;;;;5071196;28;20214;-76
2023/09/23 07:42:17;;;;;;;1.60;0.90;;;19.20;99.90;;;;;;5071285;28;20455;-68
2023/09/23 07:44:43;;;;;;;1.43;1.00;;;18.50;99.90;;;;;;5071721;28;20965;-70
2023/09/23 07:47:08;;;;;;;2.03;1.40;;;19.00;99.90;;;;;;5070761;28;20174;-71
2023/09/23 07:49:35;;;;;;;1.53;1.00;;;20.20;99.90;;;;;;5071409;28;20167;-70
2023/09/23 07:52:00;;;;;;;1.10;0.80;;;18.90;99.90;;;;;;5071266;28;20206;-68
2023/09/23 07:54:26;;;;;;;1.10;0.83;;;19.70;99.90;;;;;;5067098;28;20445;-72
2023/09/23 07:56:52;;;;;;;13.27;8.20;;;19.40;99.90;;;;;;5056786;28;20175;-71
2023/09/23 07:59:17;;;;;;;1.10;0.90;;;20.40;99.90;;;;;;5060720;28;20610;-67
2023/09/23 08:01:43;;;;;;;0.90;0.90;;;19.80;99.90;;;;;;5063160;28;20205;-67
2023/09/23 08:04:08;;;;;;;2.07;0.83;;;19.90;99.90;;;;;;5070988;28;20176;-69
2023/09/23 08:06:34;;;;;;;1.00;0.80;;;19.20;99.90;;;;;;5066044;28;20173;-69
2023/09/23 08:09:00;;;;;;;2.13;1.40;;;18.90;99.90;;;;;;5050753;28;20300;-69
2023/09/23 08:11:26;;;;;;;1.60;0.90;;;19.80;99.90;;;;;;5051226;28;20192;-69
2023/09/23 08:13:52;;;;;;;2.77;1.07;;;19.00;99.90;;;;;;5050676;28;20311;-70
2023/09/23 08:16:18;;;;;;;6.10;2.27;;;18.90;99.90;;;;;;5056595;28;20552;-69
2023/09/23 08:18:43;;;;;;;1.77;0.90;;;18.20;99.90;;;;;;5054727;28;20292;-71
2023/09/23 08:21:09;;;;;;;1.00;0.90;;;18.80;99.90;;;;;;5053046;28;20172;-72
2023/09/23 08:23:34;;;;;;;1.40;1.00;;;17.70;99.90;;;;;;5071133;28;20200;-71
2023/09/23 08:26:00;;;;;;;1.73;0.90;;;18.10;99.90;;;;;;5074673;28;20312;-70
2023/09/23 08:28:26;;;;;;;1.40;1.30;;;17.90;99.90;;;;;;5069997;28;20186;-71
2023/09/23 08:30:52;;;;;;;1.67;0.90;;;18.40;99.90;;;;;;5067668;28;20182;-71
2023/09/23 08:33:17;;;;;;;1.30;1.20;;;17.70;99.90;;;;;;5073867;28;20181;-70
2023/09/23 08:35:47;;;;;;;1.83;1.53;;;17.60;99.90;;;;;;5068423;28;20778;-70
2023/09/23 08:38:13;;;;;;;3.50;1.27;;;18.10;99.90;;;;;;5059766;28;20195;-70
2023/09/23 08:40:39;;;;;;;1.47;1.00;;;18.30;99.90;;;;;;5072204;28;20428;-69
2023/09/23 08:43:06;;;;;;;2.83;1.27;;;18.40;99.90;;;;;;5073960;28;20451;-72
2023/09/23 08:45:32;;;;;;;1.27;1.17;;;18.30;99.90;;;;;;5072814;28;20203;-71
2023/09/23 08:47:58;;;;;;;1.57;1.13;;;17.60;99.90;;;;;;5067896;28;20437;-71
2023/09/23 08:50:25;;;;;;;0.83;0.80;;;17.70;99.90;;;;;;5054550;28;20435;-72
2023/09/23 08:52:52;;;;;;;1.10;1.00;;;18.00;99.90;;;;;;5054394;28;21010;-73
2023/09/23 08:55:18;;;;;;;3.00;1.20;;;17.40;99.90;;;;;;5054033;28;20927;-72
2023/09/23 08:57:45;;;;;;;1.60;1.10;;;17.50;99.90;;;;;;5067447;28;20446;-72
2023/09/23 09:00:13;;;;;;;1.37;1.13;;;17.70;99.90;;;;;;5073686;28;20423;-72
2023/09/23 09:02:39;;;;;;;1.03;0.87;;;17.40;99.90;;;;;;5064393;28;20505;-72
2023/09/23 09:05:04;;;;;;;0.90;0.80;;;17.40;99.90;;;;;;5053732;28;20415;-71
2023/09/23 09:07:34;;;;;;;1.10;1.00;;;18.00;99.90;;;;;;5061177;28;20189;-71
2023/09/23 09:10:00;;;;;;;1.73;1.63;;;18.00;99.90;;;;;;5058280;28;21032;-71
2023/09/23 09:12:26;;;;;;;1.93;0.97;;;18.70;99.90;;;;;;5065607;28;20430;-71
2023/09/23 09:14:52;;;;;;;3.33;0.93;;;19.10;99.90;;;;;;5068867;28;20431;-70
2023/09/23 09:17:21;;;;;;;2.10;1.10;;;19.50;99.90;;;;;;5071730;28;20452;-70
2023/09/23 09:19:47;;;;;;;1.90;1.27;;;19.70;99.90;;;;;;5059356;28;20180;-69
2023/09/23 09:22:19;;;;;;;2.20;1.00;;;19.90;99.90;;;;;;5056002;28;20609;-69
2023/09/23 09:24:46;;;;;;;1.43;1.10;;;19.90;99.90;;;;;;5058655;28;20423;-70
2023/09/23 09:27:14;;;;;;;1.87;1.10;;;19.40;99.90;;;;;;5058970;28;20550;-70
2023/09/23 09:29:44;;;;;;;1.10;1.00;;;18.60;99.90;;;;;;5073361;28;20517;-70
2023/09/23 09:32:10;;;;;;;3.30;1.30;;;18.70;99.90;;;;;;5072852;28;20455;-71
2023/09/23 09:34:47;;;;;;;1.10;1.00;;;18.50;99.90;;;;;;5061706;28;20512;-71
2023/09/23 09:37:15;;;;;;;1.60;1.23;;;18.20;99.90;;;;;;5059995;28;20424;-71
2023/09/23 09:39:55;;;;;;;1.60;1.20;;;17.70;99.90;;;;;;5067465;28;20425;-72
2023/09/23 09:42:27;;;;;;;3.73;1.30;;;17.80;99.90;;;;;;5060182;28;20475;-72
2023/09/23 09:44:55;;;;;;;1.40;1.13;;;17.60;99.90;;;;;;5072609;28;20944;-70
2023/09/23 09:47:22;;;;;;;1.27;1.17;;;17.60;99.90;;;;;;5071979;28;20433;-70
2023/09/23 09:49:52;;;;;;;2.40;1.23;;;17.40;99.90;;;;;;5070152;28;20446;-71
2023/09/23 09:52:22;;;;;;;1.27;1.13;;;17.80;99.90;;;;;;5070997;28;20438;-70
2023/09/23 09:54:55;;;;;;;1.50;1.30;;;17.60;99.90;;;;;;5070634;28;20479;-70
2023/09/23 09:57:22;;;;;;;1.10;1.00;;;17.40;99.90;;;;;;5068234;28;20450;-70
2023/09/23 09:59:51;;;;;;;1.40;1.20;;;17.40;99.90;;;;;;5069649;28;20452;-70
2023/09/23 10:02:17;;;;;;;1.73;1.43;;;17.50;99.90;;;;;;5061136;28;20581;-69
2023/09/23 10:04:49;;;;;;;12.40;9.30;;;17.30;99.90;;;;;;5058183;28;20459;-75
2023/09/23 10:07:16;;;;;;;1.97;1.27;;;17.60;99.90;;;;;;5057732;28;20571;-73
2023/09/23 10:09:55;;;;;;;1.40;1.30;;;17.80;99.90;;;;;;5072846;28;20931;-76
2023/09/23 10:12:25;;;;;;;1.80;1.60;;;17.50;99.90;;;;;;5052706;28;21001;-71
2023/09/23 10:14:55;;;;;;;1.60;1.50;;;17.40;99.90;;;;;;5063488;28;20426;-77
2023/09/23 10:17:32;;;;;;;29.73;9.83;;;17.70;99.90;;;;;;5070644;28;20456;-70
2023/09/23 10:19:59;;;;;;;45.83;17.13;;;17.30;99.90;;;;;;5067371;28;20471;-68
2023/09/23 10:22:28;;;;;;;72.73;22.37;;;17.20;99.90;;;;;;5069733;28;20453;-68
2023/09/23 10:25:04;;;;;;;6.20;2.87;;;17.50;99.90;;;;;;5051380;28;20425;-71
2023/09/23 10:27:30;;;;;;;3.50;3.00;;;17.60;99.90;;;;;;5055452;28;20799;-72
2023/09/23 10:29:56;;;;;;;7.63;3.40;;;17.60;99.90;;;;;;5067034;28;20429;-74
2023/09/23 10:32:22;;;;;;;2.00;1.80;;;18.20;99.90;;;;;;5062137;28;20413;-70
2023/09/23 10:34:53;;;;;;;3.60;1.60;;;18.20;99.90;;;;;;5056726;28;20191;-70
2023/09/23 10:37:35;;;;;;;2.73;1.77;;;18.10;99.90;;;;;;5070410;28;20199;-69
2023/09/23 10:40:14;;;;;;;2.27;2.07;;;17.80;99.90;;;;;;5057327;28;20828;-69
2023/09/23 10:42:41;;;;;;;13.60;7.90;;;17.90;99.90;;;;;;5071941;28;20485;-71
2023/09/23 10:45:08;;;;;;;13.50;9.20;;;18.30;99.90;;;;;;5070646;28;20415;-75
2023/09/23 10:47:35;;;;;;;14.20;9.27;;;18.70;99.90;;;;;;5052300;28;20427;-70
2023/09/23 10:50:05;;;;;;;111.90;77.63;;;18.70;99.90;;;;;;5052554;28;20429;-70
2023/09/23 10:52:31;;;;;;;38.03;31.20;;;18.40;99.90;;;;;;5051907;28;20825;-69
2023/09/23 10:54:57;;;;;;;43.00;35.40;;;18.90;99.90;;;;;;5053746;28;20426;-69
2023/09/23 10:57:23;;;;;;;10.03;7.83;;;18.90;99.90;;;;;;5051955;28;20482;-69
2023/09/23 10:59:51;;;;;;;2.03;1.83;;;18.00;99.90;;;;;;5067212;28;20437;-69
2023/09/23 11:02:19;;;;;;;3.40;3.10;;;18.20;99.90;;;;;;5056776;28;20458;-70
2023/09/23 11:04:46;;;;;;;1.60;1.50;;;18.70;99.90;;;;;;5058418;28;20423;-70
2023/09/23 11:07:11;;;;;;;1.60;1.50;;;19.00;99.90;;;;;;5051463;28;20413;-71
2023/09/23 11:09:38;;;;;;;5.23;4.73;;;19.00;99.90;;;;;;5051919;28;20415;-69
2023/09/23 11:12:15;;;;;;;2.80;1.90;;;18.40;99.90;;;;;;5051361;28;20204;-68
2023/09/23 11:14:48;;;;;;;4.37;2.50;;;18.90;99.90;;;;;;5059967;28;20422;-74
2023/09/23 11:17:29;;;;;;;1.53;1.40;;;18.70;99.90;;;;;;5055398;28;20428;-68
2023/09/23 11:19:55;;;;;;;1.70;1.20;;;18.70;99.90;;;;;;5056639;28;20417;-69
2023/09/23 11:22:30;;;;;;;1.20;1.10;;;18.40;99.90;;;;;;5064605;28;20493;-70
2023/09/23 11:24:57;;;;;;;1.33;1.23;;;18.20;99.90;;;;;;5061887;28;20420;-72
2023/09/23 11:27:24;;;;;;;1.40;1.30;;;18.60;99.90;;;;;;5055299;28;20798;-69
2023/09/23 11:29:51;;;;;;;2.90;1.30;;;18.60;99.90;;;;;;5057830;28;20430;-70
2023/09/23 11:32:24;;;;;;;1.63;1.20;;;18.20;99.90;;;;;;5052562;28;20455;-71
2023/09/23 11:34:50;;;;;;;1.30;1.20;;;18.10;99.90;;;;;;5051916;28;20418;-71
2023/09/23 11:37:18;;;;;;;1.50;1.40;;;18.20;99.90;;;;;;5054787;28;20463;-68
2023/09/23 11:39:43;;;;;;;1.77;1.13;;;18.50;99.90;;;;;;5058978;28;20403;-70
2023/09/23 11:42:09;;;;;;;1.70;1.13;;;18.60;99.90;;;;;;5062735;28;20573;-69
2023/09/23 11:44:34;;;;;;;1.73;1.60;;;18.80;99.90;;;;;;5069646;28;20204;-75
2023/09/23 11:47:00;;;;;;;85.93;54.37;;;19.00;99.90;;;;;;5068089;28;20179;-68
2023/09/23 11:49:26;;;;;;;2.10;1.90;;;19.50;99.90;;;;;;5061016;28;20172;-69
2023/09/23 11:51:51;;;;;;;1.73;1.47;;;19.30;99.90;;;;;;5067644;28;20434;-71
2023/09/23 11:54:17;;;;;;;1.70;1.60;;;18.50;99.90;;;;;;5069254;28;20247;-71
2023/09/23 11:56:43;;;;;;;18.03;14.67;;;18.60;99.90;;;;;;5076831;28;20186;-71
2023/09/23 11:59:08;;;;;;;25.10;20.47;;;18.80;99.90;;;;;;5070196;28;20206;-68
2023/09/23 12:01:34;;;;;;;3.03;2.73;;;18.90;99.90;;;;;;5068715;28;20177;-69
2023/09/23 12:04:00;;;;;;;2.93;1.40;;;18.80;99.90;;;;;;5057972;28;21878;-70
2023/09/23 12:06:25;;;;;;;1.97;0.90;;;18.30;99.90;;;;;;5068259;28;20421;-72
2023/09/23 12:08:51;;;;;;;1.53;1.20;;;18.10;99.90;;;;;;5069475;28;20211;-71
2023/09/23 12:11:21;;;;;;;1.70;1.20;;;18.10;99.90;;;;;;5059658;28;20263;-78
2023/09/23 12:13:47;;;;;;;1.10;1.00;;;17.80;99.90;;;;;;5061788;28;20176;-76
2023/09/23 12:16:13;;;;;;;1.97;1.10;;;17.90;99.90;;;;;;5060705;28;20422;-71
2023/09/23 12:18:39;;;;;;;2.03;1.40;;;17.70;99.90;;;;;;5061530;28;21008;-69
2023/09/23 12:21:04;;;;;;;0.97;0.90;;;17.80;99.90;;;;;;5068134;28;20176;-76
2023/09/23 12:23:32;;;;;;;1.90;1.70;;;17.70;99.90;;;;;;5059556;28;20308;-69
2023/09/23 12:25:57;;;;;;;1.20;1.10;;;17.90;99.90;;;;;;5068500;28;20199;-71
2023/09/23 12:28:23;;;;;;;8.03;3.17;;;17.80;99.90;;;;;;5058632;28;20966;-69
2023/09/23 12:30:49;;;;;;;1.30;1.20;;;17.80;99.90;;;;;;5062095;28;20170;-69
2023/09/23 12:33:14;;;;;;;3.50;1.10;;;17.80;99.90;;;;;;5056679;28;20182;-71
2023/09/23 12:35:40;;;;;;;2.23;1.30;;;17.80;99.90;;;;;;5066865;28;20596;-68
2023/09/23 12:38:07;;;;;;;1.30;1.10;;;17.90;99.90;;;;;;5071143;28;20215;-72
2023/09/23 12:40:33;;;;;;;2.70;1.37;;;17.90;99.90;;;;;;5072830;28;20185;-69
2023/09/23 12:42:59;;;;;;;1.80;1.30;;;17.90;99.90;;;;;;5073559;28;20450;-69
2023/09/23 12:45:24;;;;;;;5.10;1.90;;;18.00;99.90;;;;;;5073582;28;20171;-72